Time;durP1;ratioP1;P1;durP2;ratioP2;P2;SDS_P1;SDS_P2;PMS_P1;PMS_P2;Temp;Humidity;BMP_temperature;BMP_pressure;BME280_temperature;BME280_humidity;BME280_pressure;Samples;Min_cycle;Max_cycle;Signal;HPM_P1;HPM_P2
2022/05/26 00:00:46;;;;;;;;;;;;;;;17.00;65.25;101190.50;4956092;28;102139;-53
2022/05/26 00:03:12;;;;;;;;;;;;;;;17.00;65.39;101185.00;4954491;28;103910;-53
2022/05/26 00:05:39;;;;;;;;;;;;;;;17.02;65.72;101190.19;4959981;28;101962;-52
2022/05/26 00:08:07;;;;;;;;;;;;;;;17.00;65.36;101176.75;4972170;28;101933;-53
2022/05/26 00:10:35;;;;;;;;;;;;;;;16.99;65.34;101177.88;4955742;28;102071;-52
2022/05/26 00:13:02;;;;;;;;;;;;;;;16.99;65.25;101177.88;4953982;28;103897;-52
2022/05/26 00:15:30;;;;;;;;;;;;;;;16.98;65.81;101170.72;4954952;28;102585;-53
2022/05/26 00:17:56;;;;;;;;;;;;;;;16.97;65.45;101169.09;4970143;28;102404;-52
2022/05/26 00:20:22;;;;;;;;;;;;;;;16.97;65.53;101173.78;4957127;28;102582;-53
2022/05/26 00:22:49;;;;;;;;;;;;;;;16.97;65.97;101168.28;4954334;28;103954;-53
2022/05/26 00:25:17;;;;;;;;;;;;;;;16.97;65.45;101173.78;4954852;28;102228;-53
2022/05/26 00:27:45;;;;;;;;;;;;;;;16.97;65.84;101174.59;4961448;28;102073;-53
2022/05/26 00:30:14;;;;;;;;;;;;;;;16.99;65.93;101188.88;4974907;28;102768;-53
2022/05/26 00:32:41;;;;;;;;;;;;;;;16.98;65.74;101178.97;4971822;28;103964;-53
2022/05/26 00:35:07;;;;;;;;;;;;;;;16.98;65.69;101180.91;4972652;28;101986;-53
2022/05/26 00:37:34;;;;;;;;;;;;;;;16.97;66.25;101180.09;4971758;28;102082;-53
2022/05/26 00:40:01;;;;;;;;;;;;;;;16.98;65.59;101176.22;4974516;28;102023;-53
2022/05/26 00:42:29;;;;;;;;;;;;;;;16.98;66.12;101184.47;4969968;28;104003;-53
2022/05/26 00:44:55;;;;;;;;;;;;;;;16.99;66.15;101177.88;4954515;28;102000;-53
2022/05/26 00:47:23;;;;;;;;;;;;;;;16.98;65.81;101170.72;4957032;28;102093;-53
2022/05/26 00:49:53;;;;;;;;;;;;;;;16.97;65.87;101168.28;4967862;28;102470;-53
2022/05/26 00:52:22;;;;;;;;;;;;;;;16.97;66.08;101169.09;4964649;28;104102;-53
2022/05/26 00:54:50;;;;;;;;;;;;;;;16.99;65.77;101163.31;4973917;28;102047;-53
2022/05/26 00:57:18;;;;;;;;;;;;;;;16.96;65.79;101156.47;4972760;28;102544;-52
2022/05/26 00:59:51;;;;;;;;;;;;;;;16.97;66.37;101152.59;4975118;28;102220;-53
2022/05/26 01:02:18;;;;;;;;;;;;;;;16.96;65.99;101145.47;4970612;28;104033;-53
2022/05/26 01:04:47;;;;;;;;;;;;;;;16.96;66.15;101156.47;4974268;28;101933;-53
2022/05/26 01:07:15;;;;;;;;;;;;;;;16.97;66.25;101171.03;4972452;28;102121;-53
2022/05/26 01:09:42;;;;;;;;;;;;;;;16.96;65.74;101178.47;4955340;28;102506;-53
2022/05/26 01:12:08;;;;;;;;;;;;;;;16.99;66.34;101194.38;4952841;28;103821;-53
2022/05/26 01:14:37;;;;;;;;;;;;;;;16.99;66.12;101191.63;4972602;28;102570;-52
2022/05/26 01:17:10;;;;;;;;;;;;;;;16.99;65.82;101166.88;4955081;28;101955;-53
2022/05/26 01:19:58;;;;;;;;;;;;;;;16.98;66.08;101181.72;4974638;28;102352;-53
2022/05/26 01:22:28;;;;;;;;;;;;;;;16.98;66.13;101189.97;4963008;28;103961;-52
2022/05/26 01:25:08;;;;;;;;;;;;;;;17.00;65.79;101184.19;4973703;28;102437;-53
2022/05/26 01:27:37;;;;;;;;;;;;;;;17.00;66.11;101181.44;4971638;28;102336;-53
2022/05/26 01:30:18;;;;;;;;;;;;;;;17.00;65.69;101178.69;4974214;28;102043;-53
2022/05/26 01:33:06;;;;;;;;;;;;;;;17.00;65.80;101175.94;4972976;28;103908;-53
2022/05/26 01:35:36;;;;;;;;;;;;;;;16.98;65.86;101162.47;4973374;28;102066;-53
2022/05/26 01:38:08;;;;;;;;;;;;;;;16.99;66.08;101171.56;4969662;28;102193;-53
2022/05/26 01:40:37;;;;;;;;;;;;;;;17.00;66.35;101176.75;4971472;28;102167;-53
2022/05/26 01:43:08;;;;;;;;;;;;;;;16.99;65.97;101169.63;4967504;28;103893;-53
2022/05/26 01:45:40;;;;;;;;;;;;;;;16.99;66.14;101171.56;4968718;28;102536;-53
2022/05/26 01:48:13;;;;;;;;;;;;;;;17.00;65.91;101171.25;4970667;28;102461;-53
2022/05/26 01:50:42;;;;;;;;;;;;;;;16.99;66.17;101183.38;4973786;28;102256;-53
2022/05/26 01:53:15;;;;;;;;;;;;;;;16.99;65.86;101177.88;4966997;28;103760;-53
2022/05/26 01:55:47;;;;;;;;;;;;;;;16.99;66.20;101177.06;4953554;28;102451;-53
2022/05/26 01:58:16;;;;;;;;;;;;;;;16.98;65.94;101176.22;4966331;28;101982;-53
2022/05/26 02:00:45;;;;;;;;;;;;;;;16.98;65.93;101169.91;4973905;28;102253;-53
2022/05/26 02:03:14;;;;;;;;;;;;;;;16.97;66.08;101162.78;4972243;28;103675;-53
2022/05/26 02:05:42;;;;;;;;;;;;;;;16.97;65.78;101166.34;4973013;28;101896;-53
2022/05/26 02:08:11;;;;;;;;;;;;;;;16.97;66.22;101163.59;4970862;28;102857;-53
2022/05/26 02:10:40;;;;;;;;;;;;;;;16.98;66.08;101154.22;4973259;28;102398;-53
2022/05/26 02:13:09;;;;;;;;;;;;;;;16.96;66.00;101156.47;4970847;28;103924;-53
2022/05/26 02:15:38;;;;;;;;;;;;;;;16.97;66.33;101151.78;4970748;28;102044;-53
2022/05/26 02:18:07;;;;;;;;;;;;;;;16.95;66.12;101149.34;4971194;28;101995;-53
2022/05/26 02:20:38;;;;;;;;;;;;;;;16.95;66.25;101160.34;4971964;28;102366;-53
2022/05/26 02:23:08;;;;;;;;;;;;;;;16.96;65.84;101164.72;4971780;28;103982;-53
2022/05/26 02:25:35;;;;;;;;;;;;;;;16.95;65.86;101149.34;4972751;28;102127;-52
2022/05/26 02:28:01;;;;;;;;;;;;;;;16.95;66.04;101143.84;4970737;28;102050;-53
2022/05/26 02:30:30;;;;;;;;;;;;;;;16.96;66.05;101145.47;4973615;28;102702;-53
2022/05/26 02:32:58;;;;;;;;;;;;;;;16.95;66.22;101151.25;4971309;28;104342;-54
2022/05/26 02:35:27;;;;;;;;;;;;;;;16.94;66.12;101147.69;4972845;28;102422;-53
2022/05/26 02:37:56;;;;;;;;;;;;;;;16.94;66.42;101133.97;4970907;28;102597;-53
2022/05/26 02:40:24;;;;;;;;;;;;;;;16.96;66.19;101136.44;4964986;28;102341;-52
2022/05/26 02:42:53;;;;;;;;;;;;;;;16.95;66.14;101132.88;4968755;28;103829;-53
2022/05/26 02:45:23;;;;;;;;;;;;;;;16.94;66.09;101114.72;4971164;28;102191;-52
2022/05/26 02:48:00;;;;;;;;;;;;;;;16.94;66.11;101119.41;4967983;28;102689;-53
2022/05/26 02:50:36;;;;;;;;;;;;;;;16.95;66.01;101108.13;4973177;28;102472;-53
2022/05/26 02:53:06;;;;;;;;;;;;;;;16.94;65.94;101102.91;4974455;28;103636;-54
2022/05/26 02:55:40;;;;;;;;;;;;;;;16.94;66.50;101119.41;4964150;28;102472;-53
2022/05/26 02:58:09;;;;;;;;;;;;;;;16.94;65.98;101122.97;4973778;28;102243;-53
2022/05/26 03:00:42;;;;;;;;;;;;;;;16.95;66.29;101127.38;4968108;28;102338;-53
2022/05/26 03:03:12;;;;;;;;;;;;;;;16.95;66.38;101110.03;4974748;28;104095;-53
2022/05/26 03:05:43;;;;;;;;;;;;;;;16.95;66.12;101110.88;4975351;28;102012;-52
2022/05/26 03:08:12;;;;;;;;;;;;;;;16.96;66.21;101100.69;4974260;28;101857;-52
2022/05/26 03:10:38;;;;;;;;;;;;;;;16.94;66.24;101092.72;4975687;28;102729;-53
2022/05/26 03:13:05;;;;;;;;;;;;;;;16.94;66.13;101087.22;4973127;28;103852;-57
2022/05/26 03:15:32;;;;;;;;;;;;;;;16.94;66.85;101081.72;4974583;28;101986;-52
2022/05/26 03:17:59;;;;;;;;;;;;;;;16.93;66.40;101084.78;4966888;28;102290;-53
2022/05/26 03:20:26;;;;;;;;;;;;;;;16.94;66.32;101075.41;4956239;28;102206;-52
2022/05/26 03:22:52;;;;;;;;;;;;;;;16.95;66.82;101071.53;4954844;28;103837;-52
2022/05/26 03:25:20;;;;;;;;;;;;;;;16.96;66.28;101079.50;4955643;28;102427;-52
2022/05/26 03:27:46;;;;;;;;;;;;;;;16.96;66.95;101084.19;4957128;28;102027;-53
2022/05/26 03:30:12;;;;;;;;;;;;;;;16.96;66.26;101074.00;4956215;28;102169;-53
2022/05/26 03:32:41;;;;;;;;;;;;;;;16.98;66.68;101082.75;4955307;28;103931;-52
2022/05/26 03:40:54;;;;;;;;;;;;;;;16.97;66.83;101103.13;4956263;28;102639;-53
2022/05/26 03:43:21;;;;;;;;;;;;;;;17.00;66.81;101086.00;4970959;28;104012;-53
2022/05/26 03:45:48;;;;;;;;;;;;;;;17.00;66.51;101086.00;4963368;28;102103;-53
2022/05/26 03:48:14;;;;;;;;;;;;;;;17.03;66.90;101090.91;4973036;28;102273;-52
2022/05/26 03:50:41;;;;;;;;;;;;;;;17.02;67.07;101089.28;4973268;28;102060;-53
2022/05/26 03:53:07;;;;;;;;;;;;;;;17.04;67.00;101091.72;4970096;28;103996;-52
2022/05/26 03:55:33;;;;;;;;;;;;;;;17.03;66.83;101082.66;4963564;28;102068;-52
2022/05/26 03:58:03;;;;;;;;;;;;;;;17.04;66.66;101076.03;4973022;28;102505;-53
2022/05/26 04:00:30;;;;;;;;;;;;;;;17.04;66.75;101084.28;4975471;28;102233;-52
2022/05/26 04:02:57;;;;;;;;;;;;;;;17.04;66.90;101081.53;4973431;28;103848;-53
2022/05/26 04:05:24;;;;;;;;;;;;;;;17.05;66.81;101083.16;4966388;28;102346;-53
2022/05/26 04:07:50;;;;;;;;;;;;;;;17.05;67.00;101077.66;4969177;28;101925;-53
2022/05/26 04:10:19;;;;;;;;;;;;;;;17.05;66.95;101074.91;4972811;28;102277;-52
2022/05/26 04:12:47;;;;;;;;;;;;;;;17.07;66.80;101068.31;4972785;28;103688;-52
2022/05/26 04:15:16;;;;;;;;;;;;;;;17.06;66.76;101056.50;4968679;28;102677;-53
2022/05/26 04:17:46;;;;;;;;;;;;;;;17.07;66.78;101068.31;4954599;28;101995;-53
2022/05/26 04:20:14;;;;;;;;;;;;;;;17.08;66.75;101067.16;4955329;28;102188;-52
2022/05/26 04:22:40;;;;;;;;;;;;;;;17.08;66.55;101058.91;4954569;28;103902;-52
2022/05/26 04:25:07;;;;;;;;;;;;;;;17.09;66.71;101060.53;4962514;28;102126;-52
2022/05/26 04:27:35;;;;;;;;;;;;;;;17.10;66.35;101056.69;4973104;28;102430;-53
2022/05/26 04:30:03;;;;;;;;;;;;;;;17.12;66.64;101079.19;4974688;28;102406;-53
2022/05/26 04:32:31;;;;;;;;;;;;;;;17.12;66.76;101070.94;4973281;28;103946;-53
2022/05/26 04:34:58;;;;;;;;;;;;;;;17.11;66.50;101075.63;4966162;28;102778;-52
2022/05/26 04:37:26;;;;;;;;;;;;;;;17.13;66.29;101078.06;4973393;28;102088;-52
2022/05/26 04:39:55;;;;;;;;;;;;;;;17.12;66.66;101068.19;4974913;28;102379;-53
2022/05/26 04:42:22;;;;;;;;;;;;;;;17.14;66.25;101071.44;4972062;28;104071;-52
2022/05/26 04:44:49;;;;;;;;;;;;;;;17.14;66.50;101088.75;4965860;28;101995;-53
2022/05/26 04:47:17;;;;;;;;;;;;;;;17.16;66.96;101089.25;4973647;28;102445;-52
2022/05/26 04:49:45;;;;;;;;;;;;;;;17.17;66.24;101095.59;4973729;28;102400;-52
2022/05/26 04:52:13;;;;;;;;;;;;;;;17.17;66.67;101107.41;4973316;28;103972;-52
2022/05/26 04:54:40;;;;;;;;;;;;;;;17.19;66.20;101109.84;4972667;28;102031;-53
2022/05/26 04:57:06;;;;;;;;;;;;;;;17.19;66.89;101115.34;4971901;28;102115;-52
2022/05/26 04:59:33;;;;;;;;;;;;;;;17.20;66.54;101125.22;4974844;28;102459;-52
2022/05/26 05:02:00;;;;;;;;;;;;;;;17.21;66.13;101135.13;4971640;28;103980;-53
2022/05/26 05:04:27;;;;;;;;;;;;;;;17.21;66.64;101129.63;4972242;28;102045;-53
2022/05/26 05:06:55;;;;;;;;;;;;;;;17.19;66.24;101131.84;4973648;28;102481;-53
2022/05/26 05:09:24;;;;;;;;;;;;;;;17.20;66.21;101130.72;4972700;28;102483;-52
2022/05/26 05:11:50;;;;;;;;;;;;;;;17.19;66.21;101134.59;4972093;28;103845;-53
2022/05/26 05:14:18;;;;;;;;;;;;;;;17.17;66.27;101125.84;4971474;28;102342;-52
2022/05/26 05:16:45;;;;;;;;;;;;;;;17.18;66.41;101130.22;4973268;28;101932;-52
2022/05/26 05:19:13;;;;;;;;;;;;;;;17.18;66.57;101138.47;4974409;28;102491;-52
2022/05/26 05:21:41;;;;;;;;;;;;;;;17.17;66.40;101136.84;4972036;28;103980;-53
2022/05/26 05:24:15;;;;;;;;;;;;;;;17.17;66.30;101145.09;4973727;28;101814;-53
2022/05/26 05:26:45;;;;;;;;;;;;;;;17.16;66.42;101137.94;4973279;28;101839;-52
2022/05/26 05:29:14;;;;;;;;;;;;;;;17.15;66.97;101130.81;4972902;28;102599;-52
2022/05/26 05:31:43;;;;;;;;;;;;;;;17.14;66.65;101123.72;4969034;28;104133;-52
2022/05/26 05:34:12;;;;;;;;;;;;;;;17.13;66.58;101114.63;4968775;28;103032;-52
2022/05/26 05:36:39;;;;;;;;;;;;;;;17.16;66.64;101126.94;4967079;28;102465;-52
2022/05/26 05:39:05;;;;;;;;;;;;;;;17.15;66.64;101115.13;4971651;28;102636;-55
2022/05/26 05:41:34;;;;;;;;;;;;;;;17.14;66.63;101124.50;4955970;28;103985;-53
2022/05/26 05:44:01;;;;;;;;;;;;;;;17.15;66.41;101108.81;4972829;28;101959;-53
2022/05/26 05:47:15;;;;;;;;;;;;;;;17.16;66.25;101104.94;4961444;28;102370;-54
2022/05/26 05:49:16;;;;;;;;;;;;;;;17.15;66.49;101103.31;4964200;28;102251;-52
2022/05/26 05:51:50;;;;;;;;;;;;;;;17.15;66.41;101095.88;4962154;28;103922;-52
2022/05/26 05:54:17;;;;;;;;;;;;;;;17.15;66.65;101092.31;4968936;28;102491;-52
2022/05/26 05:56:49;;;;;;;;;;;;;;;17.14;67.03;101097.00;4958103;28;102025;-53
2022/05/26 05:59:16;;;;;;;;;;;;;;;17.16;66.76;101099.44;4960210;28;102295;-52
2022/05/26 06:01:42;;;;;;;;;;;;;;;17.15;66.93;101086.81;4961805;28;103909;-53
2022/05/26 06:04:08;;;;;;;;;;;;;;;17.14;66.53;101087.94;4965689;28;102491;-53
2022/05/26 06:06:36;;;;;;;;;;;;;;;17.15;66.74;101084.06;4964838;28;102485;-52
2022/05/26 06:09:02;;;;;;;;;;;;;;;17.14;66.99;101080.50;4968300;28;103201;-52
2022/05/26 06:11:29;;;;;;;;;;;;;;;17.14;66.38;101065.94;4978442;28;103915;-53
2022/05/26 06:13:58;;;;;;;;;;;;;;;17.15;66.84;101064.81;4956140;28;102259;-52
2022/05/26 06:16:24;;;;;;;;;;;;;;;17.14;67.04;101069.50;4960096;28;104366;-53
2022/05/26 06:18:50;;;;;;;;;;;;;;;17.14;66.95;101057.69;4958255;28;102787;-52
2022/05/26 06:21:17;;;;;;;;;;;;;;;17.15;66.40;101053.81;4958750;28;105356;-52
2022/05/26 06:23:43;;;;;;;;;;;;;;;17.15;66.87;101051.06;4967839;28;102356;-52
2022/05/26 06:26:12;;;;;;;;;;;;;;;17.15;66.56;101048.31;4975941;28;102520;-52
2022/05/26 06:31:28;;;;;;;;;;;;;;;17.16;66.55;101033.44;4976544;28;103852;-53
2022/05/26 06:39:09;;;;;;;;;;;;;;;17.17;66.26;101035.09;4966673;28;102650;-53
2022/05/26 06:44:20;;;;;;;;;;;;;;;17.17;66.01;101032.34;4966000;28;102602;-52
2022/05/26 06:46:47;;;;;;;;;;;;;;;17.18;66.38;101036.72;4958681;28;102521;-52
2022/05/26 06:49:14;;;;;;;;;;;;;;;17.16;66.76;101033.44;4962386;28;102604;-52
2022/05/26 06:51:43;;;;;;;;;;;;;;;17.15;66.48;101040.06;4967195;28;103999;-54
2022/05/26 06:54:09;;;;;;;;;;;;;;;17.15;66.38;101032.63;4962146;28;102572;-53
2022/05/26 06:56:36;;;;;;;;;;;;;;;17.16;66.58;101033.44;4955727;28;102800;-52
2022/05/26 06:59:02;;;;;;;;;;;;;;;17.14;66.64;101031.00;4959872;28;102670;-52
2022/05/26 07:01:29;;;;;;;;;;;;;;;17.14;66.45;101042.00;4955258;28;103869;-52
2022/05/26 07:03:58;;;;;;;;;;;;;;;17.13;66.64;101040.38;4961506;28;102552;-52
2022/05/26 07:06:25;;;;;;;;;;;;;;;17.15;66.59;101037.31;4956287;28;102956;-53
2022/05/26 07:08:51;;;;;;;;;;;;;;;17.13;66.91;101040.38;4964279;28;102493;-53
2022/05/26 07:11:18;;;;;;;;;;;;;;;17.14;66.64;101041.19;4968247;28;103816;-52
2022/05/26 07:13:45;;;;;;;;;;;;;;;17.13;66.91;101040.38;4969767;28;102040;-53
2022/05/26 07:16:12;;;;;;;;;;;;;;;17.12;66.66;101022.25;4967644;28;104403;-53
2022/05/26 07:18:39;;;;;;;;;;;;;;;17.13;67.18;101021.13;4962085;28;102851;-52
2022/05/26 07:21:08;;;;;;;;;;;;;;;17.13;66.64;101017.56;4957737;28;103992;-52
2022/05/26 07:23:34;;;;;;;;;;;;;;;17.13;67.10;101012.06;4969258;28;102457;-53
2022/05/26 07:26:03;;;;;;;;;;;;;;;17.12;66.88;101008.50;4969166;28;102597;-53
2022/05/26 07:28:32;;;;;;;;;;;;;;;17.11;66.93;100992.31;4970943;28;102669;-53
2022/05/26 07:30:58;;;;;;;;;;;;;;;17.12;66.99;100994.75;4965700;28;103853;-53
2022/05/26 07:33:24;;;;;;;;;;;;;;;17.11;66.80;100989.56;4962771;28;102682;-52
2022/05/26 07:35:51;;;;;;;;;;;;;;;17.11;66.82;100987.63;4962355;28;103108;-53
2022/05/26 07:41:19;;;;;;;;;;;;;;;17.11;67.25;100979.38;4971445;28;108100;-52
2022/05/26 07:43:48;;;;;;;;;;;;;;;17.11;67.23;101000.56;4953360;28;102303;-53
2022/05/26 07:46:15;;;;;;;;;;;;;;;17.13;67.21;101023.06;4952173;28;102754;-53
2022/05/26 07:48:42;;;;;;;;;;;;;;;17.12;67.08;101044.25;4953871;28;102655;-53
2022/05/26 07:51:08;;;;;;;;;;;;;;;17.13;66.76;101056.06;4951323;28;104244;-53
2022/05/26 07:53:36;;;;;;;;;;;;;;;17.12;67.30;101060.75;4955497;28;102997;-53
2022/05/26 07:56:02;;;;;;;;;;;;;;;17.13;66.93;101056.06;4971794;28;101973;-52
2022/05/26 07:58:29;;;;;;;;;;;;;;;17.12;66.98;101076.44;4972840;28;102188;-53
2022/05/26 08:00:55;;;;;;;;;;;;;;;17.12;67.32;101092.94;4971280;28;103865;-53
2022/05/26 08:03:21;;;;;;;;;;;;;;;17.12;66.96;101102.00;4963049;28;102755;-53
2022/05/26 08:05:49;;;;;;;;;;;;;;;17.13;66.85;101105.56;4959641;28;102714;-53
2022/05/26 08:08:18;;;;;;;;;;;;;;;17.11;67.13;101113.31;4957561;28;104750;-53
2022/05/26 08:10:45;;;;;;;;;;;;;;;17.12;67.01;101112.19;4966451;28;103916;-53
2022/05/26 08:13:13;;;;;;;;;;;;;;;17.13;67.03;101133.06;4972464;28;102304;-53
2022/05/26 08:15:39;;;;;;;;;;;;;;;17.13;67.07;101144.06;4971294;28;102578;-53
2022/05/26 08:18:06;;;;;;;;;;;;;;;17.12;67.38;101145.19;4972580;28;102574;-53
2022/05/26 08:20:33;;;;;;;;;;;;;;;17.13;66.88;101155.06;4970962;28;103803;-53
2022/05/26 08:22:59;;;;;;;;;;;;;;;17.12;67.46;101159.75;4972436;28;102483;-55
2022/05/26 08:25:27;;;;;;;;;;;;;;;17.13;67.00;101160.56;4970660;28;102446;-53
2022/05/26 08:27:55;;;;;;;;;;;;;;;17.12;67.24;101169.94;4972900;28;102210;-53
2022/05/26 08:30:22;;;;;;;;;;;;;;;17.12;67.01;101175.44;4969932;28;103844;-53
2022/05/26 08:32:51;;;;;;;;;;;;;;;17.11;67.00;101171.88;4971664;28;102528;-53
2022/05/26 08:35:17;;;;;;;;;;;;;;;17.11;67.15;101179.31;4971708;28;102586;-53
2022/05/26 08:37:44;;;;;;;;;;;;;;;17.11;67.06;101179.31;4972039;28;102589;-53
2022/05/26 08:40:23;;;;;;;;;;;;;;;17.11;67.04;101184.81;4971525;28;103945;-53
2022/05/26 08:42:49;;;;;;;;;;;;;;;17.12;66.99;101180.94;4971574;28;102192;-53
2022/05/26 08:45:18;;;;;;;;;;;;;;;17.11;67.35;101180.13;4971406;28;103141;-52
2022/05/26 08:47:45;;;;;;;;;;;;;;;17.11;67.09;101173.81;4972269;28;102504;-53
2022/05/26 08:50:13;;;;;;;;;;;;;;;17.12;67.33;101175.44;4968006;28;103946;-53
2022/05/26 08:52:42;;;;;;;;;;;;;;;17.12;67.19;101175.44;4961130;28;102007;-53
2022/05/26 08:55:12;;;;;;;;;;;;;;;17.11;67.24;101174.63;4971686;28;102377;-53
2022/05/26 08:57:40;;;;;;;;;;;;;;;17.11;67.22;101171.06;4971836;28;102585;-53
2022/05/26 09:00:08;;;;;;;;;;;;;;;17.12;67.28;101169.94;4971130;28;103997;-53
2022/05/26 09:02:37;;;;;;;;;;;;;;;17.11;67.02;101169.13;4971793;28;102461;-52
2022/05/26 09:05:11;;;;;;;;;;;;;;;17.11;67.02;101169.13;4971328;28;101993;-52
2022/05/26 09:13:12;;;;;;;;;;;;;;;17.13;67.24;101168.81;4951327;28;102575;-53
2022/05/26 09:15:38;;;;;;;;;;;;;;;17.12;67.02;101172.69;4959692;28;102181;-52
2022/05/26 09:18:13;;;;;;;;;;;;;;;17.12;66.87;101170.75;4971869;28;102593;-54
2022/05/26 09:20:41;;;;;;;;;;;;;;;17.13;67.23;101172.41;4960007;28;104029;-53
2022/05/26 09:23:09;;;;;;;;;;;;;;;17.13;67.03;101168.81;4970793;28;102420;-52
2022/05/26 09:25:37;;;;;;;;;;;;;;;17.13;67.30;101172.41;4962500;28;102475;-53
2022/05/26 09:28:05;;;;;;;;;;;;;;;17.15;66.89;101180.31;4971762;28;102227;-53
2022/05/26 09:30:33;;;;;;;;;;;;;;;17.14;67.18;101184.22;4967310;28;103890;-52
2022/05/26 09:33:00;;;;;;;;;;;;;;;17.14;66.71;101178.72;4965446;28;102279;-53
2022/05/26 09:35:29;;;;;;;;;;;;;;;17.15;66.80;101185.81;4970652;28;102276;-53
2022/05/26 09:37:56;;;;;;;;;;;;;;;17.13;66.89;101172.41;4969680;28;102702;-53
2022/05/26 09:40:25;;;;;;;;;;;;;;;17.14;66.74;101176.78;4967846;28;103815;-53
2022/05/26 09:42:58;;;;;;;;;;;;;;;17.14;67.01;101173.22;4969936;28;102467;-52
2022/05/26 09:45:24;;;;;;;;;;;;;;;17.15;66.75;101166.56;4970501;28;102319;-52
2022/05/26 09:47:54;;;;;;;;;;;;;;;17.13;66.70;101169.66;4968105;28;102597;-52
2022/05/26 09:50:41;;;;;;;;;;;;;;;17.15;67.02;101166.56;4970058;28;103874;-52
2022/05/26 09:53:09;;;;;;;;;;;;;;;17.16;66.85;101184.69;4970992;28;102443;-53
2022/05/26 09:55:41;;;;;;;;;;;;;;;17.16;66.85;101176.44;4970174;28;102203;-52
2022/05/26 09:58:08;;;;;;;;;;;;;;;17.17;67.44;101172.59;4966240;28;102621;-53
2022/05/26 10:00:37;;;;;;;;;;;;;;;17.15;67.16;101164.63;4969372;28;104041;-53
2022/05/26 10:03:08;;;;;;;;;;;;;;;17.15;66.80;101158.31;4961298;28;102669;-53
2022/05/26 10:05:37;;;;;;;;;;;;;;;17.15;66.87;101156.38;4960396;28;103617;-53
2022/05/26 10:08:09;;;;;;;;;;;;;;;17.16;66.91;101159.94;4959289;28;103337;-54
2022/05/26 10:10:45;;;;;;;;;;;;;;;17.16;67.07;101154.44;4958011;28;106462;-52
2022/05/26 10:13:24;;;;;;;;;;;;;;;17.16;67.39;101154.44;4962152;28;102426;-52
2022/05/26 10:15:57;;;;;;;;;;;;;;;17.16;66.88;101159.94;4958890;28;102353;-53
2022/05/26 10:18:31;;;;;;;;;;;;;;;17.17;67.15;101161.59;4964052;28;102207;-52
2022/05/26 10:21:02;;;;;;;;;;;;;;;17.17;67.02;101170.66;4958156;28;103447;-53
2022/05/26 10:23:36;;;;;;;;;;;;;;;17.18;66.76;101174.22;4964113;28;102099;-52
2022/05/26 10:26:08;;;;;;;;;;;;;;;17.18;66.91;101174.22;4969658;28;102438;-52
2022/05/26 10:28:44;;;;;;;;;;;;;;;17.18;67.16;101175.03;4970935;28;102401;-52
2022/05/26 10:31:18;;;;;;;;;;;;;;;17.18;66.88;101185.22;4949814;28;103678;-52
2022/05/26 10:34:03;;;;;;;;;;;;;;;17.17;67.37;101175.34;4958445;28;102447;-52
2022/05/26 10:36:40;;;;;;;;;;;;;;;17.17;67.23;101172.59;4955141;28;102422;-53
2022/05/26 10:39:10;;;;;;;;;;;;;;;17.17;67.14;101173.41;4962430;28;102536;-52
2022/05/26 10:41:41;;;;;;;;;;;;;;;17.18;66.94;101180.53;4968926;28;104115;-52
2022/05/26 10:44:15;;;;;;;;;;;;;;;17.18;67.14;101179.72;4964931;28;102302;-53
2022/05/26 10:46:46;;;;;;;;;;;;;;;17.17;66.93;101184.41;4957078;28;102429;-52
2022/05/26 10:49:16;;;;;;;;;;;;;;;17.18;67.25;101190.72;4967748;28;102330;-52
2022/05/26 10:51:45;;;;;;;;;;;;;;;17.18;67.04;101190.72;4956441;28;103924;-53
2022/05/26 10:54:15;;;;;;;;;;;;;;;17.18;67.31;101196.22;4963366;28;102971;-53
2022/05/26 10:56:45;;;;;;;;;;;;;;;17.20;67.10;101202.22;4948844;28;102280;-52
2022/05/26 10:59:16;;;;;;;;;;;;;;;17.20;67.32;101204.97;4967208;28;102354;-53
2022/05/26 11:01:45;;;;;;;;;;;;;;;17.21;67.32;101201.94;4960017;28;107978;-52
2022/05/26 11:04:17;;;;;;;;;;;;;;;17.21;66.92;101201.94;4960375;28;102273;-52
2022/05/26 11:06:45;;;;;;;;;;;;;;;17.21;67.32;101198.38;4965854;28;102538;-53
2022/05/26 11:09:16;;;;;;;;;;;;;;;17.22;67.08;101203.56;4950551;28;102354;-53
2022/05/26 11:11:46;;;;;;;;;;;;;;;17.23;67.15;101196.13;4949390;28;104259;-52
2022/05/26 11:17:22;;;;;;;;;;;;;;;17.23;67.46;101204.38;4939426;28;102886;-53
2022/05/26 11:19:50;;;;;;;;;;;;;;;17.22;67.22;101208.25;4972826;28;102838;-52
2022/05/26 11:22:16;;;;;;;;;;;;;;;17.24;67.56;101211.53;4958504;28;104077;-53
2022/05/26 11:24:48;;;;;;;;;;;;;;;17.23;67.63;101216.19;4962304;28;102456;-52
2022/05/26 11:27:19;;;;;;;;;;;;;;;17.23;67.27;101216.19;4961062;28;102387;-52
2022/05/26 11:29:50;;;;;;;;;;;;;;;17.24;67.25;101219.78;4962525;28;102576;-53
2022/05/26 11:36:07;;;;;;;;;;;;;;;17.23;66.93;101207.13;4971477;28;102234;-52
2022/05/26 11:37:58;;;;;;;;;;;;;;;17.22;66.90;101208.25;4971119;28;102309;-53
2022/05/26 11:40:31;;;;;;;;;;;;;;;17.22;67.37;101195.31;4961449;28;102408;-52
2022/05/26 11:42:58;;;;;;;;;;;;;;;17.22;67.07;101197.25;4971785;28;104022;-52
2022/05/26 11:45:26;;;;;;;;;;;;;;;17.21;67.11;101201.13;4972623;28;102245;-52
2022/05/26 11:47:54;;;;;;;;;;;;;;;17.22;66.87;101186.25;4968649;28;103231;-52
2022/05/26 11:50:24;;;;;;;;;;;;;;;17.21;66.87;101184.63;4973004;28;102625;-53
2022/05/26 11:53:10;;;;;;;;;;;;;;;17.21;67.03;101179.94;4969721;28;103878;-53
2022/05/26 11:55:48;;;;;;;;;;;;;;;17.21;66.90;101179.13;4970978;28;102419;-52
2022/05/26 11:58:32;;;;;;;;;;;;;;;17.21;66.92;101184.63;4971719;28;102566;-52
2022/05/26 12:01:12;;;;;;;;;;;;;;;17.21;67.05;101193.69;4963360;28;103260;-52
2022/05/26 12:04:05;;;;;;;;;;;;;;;17.21;67.00;101190.13;4971866;28;104054;-53
2022/05/26 12:06:33;;;;;;;;;;;;;;;17.21;67.40;101182.69;4956079;28;102667;-53
2022/05/26 12:09:01;;;;;;;;;;;;;;;17.20;67.09;101181.06;4970097;28;102689;-53
2022/05/26 12:11:46;;;;;;;;;;;;;;;17.20;66.91;101178.31;4966102;28;102266;-53
2022/05/26 12:14:20;;;;;;;;;;;;;;;17.20;66.91;101178.31;4969655;28;107919;-52
2022/05/26 12:16:46;;;;;;;;;;;;;;;17.20;66.95;101174.72;4968090;28;102245;-53
2022/05/26 12:19:33;;;;;;;;;;;;;;;17.21;67.50;101174.44;4968160;28;102573;-52
2022/05/26 12:22:14;;;;;;;;;;;;;;;17.20;67.30;101167.31;4965698;28;102123;-52
2022/05/26 12:24:59;;;;;;;;;;;;;;;17.20;66.91;101178.31;4965596;28;104341;-53
2022/05/26 12:27:44;;;;;;;;;;;;;;;17.21;67.36;101170.88;4959648;28;102142;-52
2022/05/26 12:30:28;;;;;;;;;;;;;;;17.21;67.42;101170.88;4952890;28;102147;-52
2022/05/26 12:32:55;;;;;;;;;;;;;;;17.21;67.22;101173.63;4952890;28;102152;-53
2022/05/26 12:35:29;;;;;;;;;;;;;;;17.21;66.94;101174.44;4954875;28;103934;-52
2022/05/26 12:38:01;;;;;;;;;;;;;;;17.21;67.22;101168.13;4970692;28;102085;-53
2022/05/26 12:40:44;;;;;;;;;;;;;;;17.21;67.09;101157.94;4971264;28;102381;-52
2022/05/26 12:43:27;;;;;;;;;;;;;;;17.22;67.33;101158.75;4971497;28;102276;-52
2022/05/26 12:45:59;;;;;;;;;;;;;;;17.22;67.28;101159.56;4954326;28;103679;-52
2022/05/26 12:48:42;;;;;;;;;;;;;;;17.22;67.06;101153.22;4959569;28;102189;-52
2022/05/26 12:51:10;;;;;;;;;;;;;;;17.21;67.30;101146.94;4970869;28;102029;-52
2022/05/26 12:53:39;;;;;;;;;;;;;;;17.22;67.05;101147.75;4964898;28;102754;-52
2022/05/26 12:56:09;;;;;;;;;;;;;;;17.23;67.06;101154.84;4953638;28;103792;-52
2022/05/26 12:58:37;;;;;;;;;;;;;;;17.23;67.29;101158.41;4951748;28;102432;-52
2022/05/26 13:01:06;;;;;;;;;;;;;;;17.23;67.34;101152.09;4956107;28;102354;-52
2022/05/26 13:03:35;;;;;;;;;;;;;;;17.24;66.84;101156.50;4961800;28;102745;-53
2022/05/26 13:06:07;;;;;;;;;;;;;;;17.22;67.29;101148.53;4966989;28;103924;-53
2022/05/26 13:08:44;;;;;;;;;;;;;;;17.23;67.20;101150.16;4963153;28;102567;-53
2022/05/26 13:11:14;;;;;;;;;;;;;;;17.24;67.04;101145.50;4968991;28;102098;-52